sensor_id;sensor_type;location;lat;lon;timestamp;temperature;humidity
80228;DHT22;69539;42.138;24.742;2024-01-16T00:01:06;21.00;22.70
80228;DHT22;69539;42.138;24.742;2024-01-16T00:03:32;21.00;22.80
80228;DHT22;69539;42.138;24.742;2024-01-16T00:05:57;21.00;22.70
80228;DHT22;69539;42.138;24.742;2024-01-16T00:08:23;21.00;22.70
80228;DHT22;69539;42.138;24.742;2024-01-16T00:10:50;21.00;22.70
80228;DHT22;69539;42.138;24.742;2024-01-16T00:13:16;21.00;22.70
80228;DHT22;69539;42.138;24.742;2024-01-16T00:15:42;21.00;22.80
80228;DHT22;69539;42.138;24.742;2024-01-16T00:18:08;21.00;22.80
80228;DHT22;69539;42.138;24.742;2024-01-16T00:20:34;21.00;22.70
80228;DHT22;69539;42.138;24.742;2024-01-16T00:23:00;21.00;22.70
80228;DHT22;69539;42.138;24.742;2024-01-16T00:25:26;21.00;22.70
80228;DHT22;69539;42.138;24.742;2024-01-16T00:27:52;21.00;22.80
80228;DHT22;69539;42.138;24.742;2024-01-16T00:30:18;21.00;22.70
80228;DHT22;69539;42.138;24.742;2024-01-16T00:32:44;21.00;22.70
80228;DHT22;69539;42.138;24.742;2024-01-16T00:35:09;21.00;22.70
80228;DHT22;69539;42.138;24.742;2024-01-16T00:37:38;21.00;22.70
80228;DHT22;69539;42.138;24.742;2024-01-16T00:40:05;21.00;22.70
80228;DHT22;69539;42.138;24.742;2024-01-16T00:42:33;21.00;22.70
80228;DHT22;69539;42.138;24.742;2024-01-16T00:44:59;21.00;22.70
80228;DHT22;69539;42.138;24.742;2024-01-16T00:47:25;21.00;22.70
80228;DHT22;69539;42.138;24.742;2024-01-16T00:49:51;21.00;22.70
80228;DHT22;69539;42.138;24.742;2024-01-16T00:52:17;21.00;22.70
80228;DHT22;69539;42.138;24.742;2024-01-16T00:54:43;21.00;22.70
80228;DHT22;69539;42.138;24.742;2024-01-16T00:57:09;20.90;22.60
80228;DHT22;69539;42.138;24.742;2024-01-16T00:59:34;21.00;22.70
80228;DHT22;69539;42.138;24.742;2024-01-16T01:02:00;21.00;22.70
80228;DHT22;69539;42.138;24.742;2024-01-16T01:04:26;20.90;22.60
80228;DHT22;69539;42.138;24.742;2024-01-16T01:06:51;20.90;22.70
80228;DHT22;69539;42.138;24.742;2024-01-16T01:09:17;21.00;22.90
80228;DHT22;69539;42.138;24.742;2024-01-16T01:11:43;20.90;22.70
80228;DHT22;69539;42.138;24.742;2024-01-16T01:14:09;21.00;22.70
80228;DHT22;69539;42.138;24.742;2024-01-16T01:16:34;20.90;22.60
80228;DHT22;69539;42.138;24.742;2024-01-16T01:19:00;20.90;22.60
80228;DHT22;69539;42.138;24.742;2024-01-16T01:21:26;20.90;22.60
80228;DHT22;69539;42.138;24.742;2024-01-16T01:23:52;20.90;22.60
80228;DHT22;69539;42.138;24.742;2024-01-16T01:26:18;20.90;22.60
80228;DHT22;69539;42.138;24.742;2024-01-16T01:28:44;21.00;22.70
80228;DHT22;69539;42.138;24.742;2024-01-16T01:31:13;20.90;22.60
80228;DHT22;69539;42.138;24.742;2024-01-16T01:33:39;20.90;22.70
80228;DHT22;69539;42.138;24.742;2024-01-16T01:36:05;20.90;22.70
80228;DHT22;69539;42.138;24.742;2024-01-16T01:38:31;20.90;22.60
80228;DHT22;69539;42.138;24.742;2024-01-16T01:40:57;20.90;22.60
80228;DHT22;69539;42.138;24.742;2024-01-16T01:43:24;20.90;22.60
80228;DHT22;69539;42.138;24.742;2024-01-16T01:48:30;20.90;22.60
80228;DHT22;69539;42.138;24.742;2024-01-16T01:50:57;20.90;22.60
80228;DHT22;69539;42.138;24.742;2024-01-16T01:53:24;20.90;22.60
80228;DHT22;69539;42.138;24.742;2024-01-16T01:55:50;20.90;22.60
80228;DHT22;69539;42.138;24.742;2024-01-16T01:58:16;20.90;22.60
80228;DHT22;69539;42.138;24.742;2024-01-16T02:00:41;20.90;22.60
80228;DHT22;69539;42.138;24.742;2024-01-16T02:03:07;20.90;22.60
80228;DHT22;69539;42.138;24.742;2024-01-16T02:05:33;20.90;22.70
80228;DHT22;69539;42.138;24.742;2024-01-16T02:07:59;20.90;23.50
80228;DHT22;69539;42.138;24.742;2024-01-16T02:10:27;20.90;22.60
80228;DHT22;69539;42.138;24.742;2024-01-16T02:12:52;20.90;22.60
80228;DHT22;69539;42.138;24.742;2024-01-16T02:15:18;20.90;22.60
80228;DHT22;69539;42.138;24.742;2024-01-16T02:17:44;20.90;22.60
80228;DHT22;69539;42.138;24.742;2024-01-16T02:20:10;20.90;22.60
80228;DHT22;69539;42.138;24.742;2024-01-16T02:22:36;20.90;22.60
80228;DHT22;69539;42.138;24.742;2024-01-16T02:25:02;20.90;22.60
80228;DHT22;69539;42.138;24.742;2024-01-16T02:27:28;20.90;22.60
80228;DHT22;69539;42.138;24.742;2024-01-16T02:29:54;20.90;22.60
80228;DHT22;69539;42.138;24.742;2024-01-16T02:32:20;20.90;22.60
80228;DHT22;69539;42.138;24.742;2024-01-16T02:34:45;20.90;22.60
80228;DHT22;69539;42.138;24.742;2024-01-16T02:37:11;20.90;22.60
80228;DHT22;69539;42.138;24.742;2024-01-16T02:39:37;20.90;22.50
80228;DHT22;69539;42.138;24.742;2024-01-16T02:42:02;20.90;22.50
80228;DHT22;69539;42.138;24.742;2024-01-16T02:44:28;20.90;22.50
80228;DHT22;69539;42.138;24.742;2024-01-16T02:46:54;20.90;22.60
80228;DHT22;69539;42.138;24.742;2024-01-16T02:49:20;20.90;22.70
80228;DHT22;69539;42.138;24.742;2024-01-16T02:51:45;20.90;22.70
80228;DHT22;69539;42.138;24.742;2024-01-16T02:54:11;20.90;22.60
80228;DHT22;69539;42.138;24.742;2024-01-16T02:56:37;20.90;22.60
80228;DHT22;69539;42.138;24.742;2024-01-16T02:59:03;20.90;22.50
80228;DHT22;69539;42.138;24.742;2024-01-16T03:01:28;20.90;22.60
80228;DHT22;69539;42.138;24.742;2024-01-16T03:03:54;20.90;22.60
80228;DHT22;69539;42.138;24.742;2024-01-16T03:06:23;20.90;22.60
80228;DHT22;69539;42.138;24.742;2024-01-16T03:08:53;20.90;22.50
80228;DHT22;69539;42.138;24.742;2024-01-16T03:11:19;20.90;22.50
80228;DHT22;69539;42.138;24.742;2024-01-16T03:13:45;20.90;22.50
80228;DHT22;69539;42.138;24.742;2024-01-16T03:16:10;20.90;22.50
80228;DHT22;69539;42.138;24.742;2024-01-16T03:18:39;20.90;22.50
80228;DHT22;69539;42.138;24.742;2024-01-16T03:21:06;20.90;22.50
80228;DHT22;69539;42.138;24.742;2024-01-16T03:23:31;20.90;22.50
80228;DHT22;69539;42.138;24.742;2024-01-16T03:25:57;20.90;22.50
80228;DHT22;69539;42.138;24.742;2024-01-16T03:28:24;20.90;22.60
80228;DHT22;69539;42.138;24.742;2024-01-16T03:30:49;20.90;22.60
80228;DHT22;69539;42.138;24.742;2024-01-16T03:33:15;20.90;22.50
80228;DHT22;69539;42.138;24.742;2024-01-16T03:35:40;20.90;22.60
80228;DHT22;69539;42.138;24.742;2024-01-16T03:38:06;20.90;22.50
80228;DHT22;69539;42.138;24.742;2024-01-16T03:40:32;20.90;22.50
80228;DHT22;69539;42.138;24.742;2024-01-16T03:43:02;20.90;22.50
80228;DHT22;69539;42.138;24.742;2024-01-16T03:45:30;20.90;22.50
80228;DHT22;69539;42.138;24.742;2024-01-16T03:47:56;20.90;22.50
80228;DHT22;69539;42.138;24.742;2024-01-16T03:50:21;20.90;22.60
80228;DHT22;69539;42.138;24.742;2024-01-16T03:52:47;20.90;22.50
80228;DHT22;69539;42.138;24.742;2024-01-16T03:55:13;20.90;22.50
80228;DHT22;69539;42.138;24.742;2024-01-16T03:57:38;20.90;22.60
80228;DHT22;69539;42.138;24.742;2024-01-16T04:00:06;20.90;22.50
80228;DHT22;69539;42.138;24.742;2024-01-16T04:02:32;20.90;22.50
80228;DHT22;69539;42.138;24.742;2024-01-16T04:04:58;20.90;22.50
80228;DHT22;69539;42.138;24.742;2024-01-16T04:07:24;20.90;22.60
80228;DHT22;69539;42.138;24.742;2024-01-16T04:09:52;20.80;22.50
80228;DHT22;69539;42.138;24.742;2024-01-16T04:12:17;20.90;22.50
80228;DHT22;69539;42.138;24.742;2024-01-16T04:14:43;20.90;22.60
80228;DHT22;69539;42.138;24.742;2024-01-16T04:17:09;20.90;22.50
80228;DHT22;69539;42.138;24.742;2024-01-16T04:19:34;20.80;22.50
80228;DHT22;69539;42.138;24.742;2024-01-16T04:22:00;20.90;22.50
80228;DHT22;69539;42.138;24.742;2024-01-16T04:24:30;20.90;22.50
80228;DHT22;69539;42.138;24.742;2024-01-16T04:26:56;20.80;22.50
80228;DHT22;69539;42.138;24.742;2024-01-16T04:29:21;20.90;22.60
80228;DHT22;69539;42.138;24.742;2024-01-16T04:31:47;20.90;22.50
80228;DHT22;69539;42.138;24.742;2024-01-16T04:34:13;20.80;22.50
80228;DHT22;69539;42.138;24.742;2024-01-16T04:36:39;20.80;22.50
80228;DHT22;69539;42.138;24.742;2024-01-16T04:39:04;20.90;22.50
80228;DHT22;69539;42.138;24.742;2024-01-16T04:41:30;20.90;22.50
80228;DHT22;69539;42.138;24.742;2024-01-16T04:43:55;20.90;22.60
80228;DHT22;69539;42.138;24.742;2024-01-16T04:46:21;20.80;22.10
80228;DHT22;69539;42.138;24.742;2024-01-16T04:48:47;20.40;21.30
80228;DHT22;69539;42.138;24.742;2024-01-16T04:51:12;20.10;21.50
80228;DHT22;69539;42.138;24.742;2024-01-16T04:53:38;19.90;21.50
80228;DHT22;69539;42.138;24.742;2024-01-16T04:56:04;19.60;21.60
80228;DHT22;69539;42.138;24.742;2024-01-16T04:58:30;19.50;21.70
80228;DHT22;69539;42.138;24.742;2024-01-16T05:00:55;19.50;21.80
80228;DHT22;69539;42.138;24.742;2024-01-16T05:03:21;19.30;21.90
80228;DHT22;69539;42.138;24.742;2024-01-16T05:05:47;19.20;22.00
80228;DHT22;69539;42.138;24.742;2024-01-16T05:08:12;19.20;22.00
80228;DHT22;69539;42.138;24.742;2024-01-16T05:10:38;19.20;21.90
80228;DHT22;69539;42.138;24.742;2024-01-16T05:13:04;19.30;22.10
80228;DHT22;69539;42.138;24.742;2024-01-16T05:15:29;19.40;21.90
80228;DHT22;69539;42.138;24.742;2024-01-16T05:17:55;19.50;21.90
80228;DHT22;69539;42.138;24.742;2024-01-16T05:20:21;19.60;21.80
80228;DHT22;69539;42.138;24.742;2024-01-16T05:22:47;19.50;21.80
80228;DHT22;69539;42.138;24.742;2024-01-16T05:25:13;19.60;21.80
80228;DHT22;69539;42.138;24.742;2024-01-16T05:27:38;19.50;21.70
80228;DHT22;69539;42.138;24.742;2024-01-16T05:30:04;19.40;21.50
80228;DHT22;69539;42.138;24.742;2024-01-16T05:32:30;19.20;21.50
80228;DHT22;69539;42.138;24.742;2024-01-16T05:34:56;19.00;21.60
80228;DHT22;69539;42.138;24.742;2024-01-16T05:37:21;18.70;21.70
80228;DHT22;69539;42.138;24.742;2024-01-16T05:39:47;18.40;21.90
80228;DHT22;69539;42.138;24.742;2024-01-16T05:42:12;18.00;22.10
80228;DHT22;69539;42.138;24.742;2024-01-16T05:44:38;17.80;22.20
80228;DHT22;69539;42.138;24.742;2024-01-16T05:47:04;17.90;22.10
80228;DHT22;69539;42.138;24.742;2024-01-16T05:49:31;17.80;22.10
80228;DHT22;69539;42.138;24.742;2024-01-16T05:51:57;17.80;22.10
80228;DHT22;69539;42.138;24.742;2024-01-16T05:54:23;17.70;22.20
80228;DHT22;69539;42.138;24.742;2024-01-16T05:56:48;17.60;22.30
80228;DHT22;69539;42.138;24.742;2024-01-16T05:59:15;17.80;22.30
80228;DHT22;69539;42.138;24.742;2024-01-16T06:01:41;18.10;22.60
80228;DHT22;69539;42.138;24.742;2024-01-16T06:04:07;18.30;22.40
80228;DHT22;69539;42.138;24.742;2024-01-16T06:06:32;18.70;22.30
80228;DHT22;69539;42.138;24.742;2024-01-16T06:08:58;19.10;22.10
80228;DHT22;69539;42.138;24.742;2024-01-16T06:11:31;19.50;21.80
80228;DHT22;69539;42.138;24.742;2024-01-16T06:13:57;19.70;21.90
80228;DHT22;69539;42.138;24.742;2024-01-16T06:16:22;20.00;21.80
80228;DHT22;69539;42.138;24.742;2024-01-16T06:18:48;20.20;21.70
80228;DHT22;69539;42.138;24.742;2024-01-16T06:21:13;20.40;21.70
80228;DHT22;69539;42.138;24.742;2024-01-16T06:23:40;20.50;21.50
80228;DHT22;69539;42.138;24.742;2024-01-16T06:26:08;20.70;21.50
80228;DHT22;69539;42.138;24.742;2024-01-16T06:28:33;20.90;21.50
80228;DHT22;69539;42.138;24.742;2024-01-16T06:30:59;20.90;21.50
80228;DHT22;69539;42.138;24.742;2024-01-16T06:33:24;21.00;21.50
80228;DHT22;69539;42.138;24.742;2024-01-16T06:35:51;21.10;21.50
80228;DHT22;69539;42.138;24.742;2024-01-16T06:38:17;21.20;21.50
80228;DHT22;69539;42.138;24.742;2024-01-16T06:40:42;21.30;21.50
80228;DHT22;69539;42.138;24.742;2024-01-16T06:43:08;21.30;21.80
80228;DHT22;69539;42.138;24.742;2024-01-16T06:45:34;21.30;21.80
80228;DHT22;69539;42.138;24.742;2024-01-16T06:48:00;21.40;22.00
80228;DHT22;69539;42.138;24.742;2024-01-16T06:50:27;21.40;22.00
80228;DHT22;69539;42.138;24.742;2024-01-16T06:52:52;21.50;22.10
80228;DHT22;69539;42.138;24.742;2024-01-16T06:55:18;21.60;22.10
80228;DHT22;69539;42.138;24.742;2024-01-16T06:57:43;21.60;23.00
80228;DHT22;69539;42.138;24.742;2024-01-16T07:00:09;21.70;22.20
80228;DHT22;69539;42.138;24.742;2024-01-16T07:02:35;21.70;22.20
80228;DHT22;69539;42.138;24.742;2024-01-16T07:05:01;21.80;22.30
80228;DHT22;69539;42.138;24.742;2024-01-16T07:07:27;21.80;22.30
80228;DHT22;69539;42.138;24.742;2024-01-16T07:09:52;21.90;22.50
80228;DHT22;69539;42.138;24.742;2024-01-16T07:12:18;21.90;22.50
80228;DHT22;69539;42.138;24.742;2024-01-16T07:14:44;22.00;22.60
80228;DHT22;69539;42.138;24.742;2024-01-16T07:17:09;22.00;22.70
80228;DHT22;69539;42.138;24.742;2024-01-16T07:19:35;22.10;22.70
80228;DHT22;69539;42.138;24.742;2024-01-16T07:22:00;22.20;22.80
80228;DHT22;69539;42.138;24.742;2024-01-16T07:24:26;22.20;23.00
80228;DHT22;69539;42.138;24.742;2024-01-16T07:26:52;22.30;23.00
80228;DHT22;69539;42.138;24.742;2024-01-16T07:29:19;22.30;23.20
80228;DHT22;69539;42.138;24.742;2024-01-16T07:31:45;22.30;23.20
80228;DHT22;69539;42.138;24.742;2024-01-16T07:34:11;22.30;23.30
80228;DHT22;69539;42.138;24.742;2024-01-16T07:36:37;22.40;23.40
80228;DHT22;69539;42.138;24.742;2024-01-16T07:39:03;22.40;23.40
80228;DHT22;69539;42.138;24.742;2024-01-16T07:41:29;22.50;23.40
80228;DHT22;69539;42.138;24.742;2024-01-16T07:43:54;22.50;23.60
80228;DHT22;69539;42.138;24.742;2024-01-16T07:46:20;22.50;24.10
80228;DHT22;69539;42.138;24.742;2024-01-16T07:48:46;22.60;23.60
80228;DHT22;69539;42.138;24.742;2024-01-16T07:51:11;22.60;23.60
80228;DHT22;69539;42.138;24.742;2024-01-16T07:53:37;22.70;23.70
80228;DHT22;69539;42.138;24.742;2024-01-16T07:56:03;22.70;23.70
80228;DHT22;69539;42.138;24.742;2024-01-16T07:58:28;22.70;23.60
80228;DHT22;69539;42.138;24.742;2024-01-16T08:00:54;22.80;23.70
80228;DHT22;69539;42.138;24.742;2024-01-16T08:03:20;22.80;23.80
80228;DHT22;69539;42.138;24.742;2024-01-16T08:05:45;22.80;23.80
80228;DHT22;69539;42.138;24.742;2024-01-16T08:08:11;22.90;23.80
80228;DHT22;69539;42.138;24.742;2024-01-16T08:10:37;22.90;23.80
80228;DHT22;69539;42.138;24.742;2024-01-16T08:13:03;22.90;23.70
80228;DHT22;69539;42.138;24.742;2024-01-16T08:15:29;22.90;23.60
80228;DHT22;69539;42.138;24.742;2024-01-16T08:17:54;23.00;23.70
80228;DHT22;69539;42.138;24.742;2024-01-16T08:20:20;23.00;23.70
80228;DHT22;69539;42.138;24.742;2024-01-16T08:22:46;23.00;23.70
80228;DHT22;69539;42.138;24.742;2024-01-16T08:25:11;23.00;23.70
80228;DHT22;69539;42.138;24.742;2024-01-16T08:27:37;23.10;23.80
80228;DHT22;69539;42.138;24.742;2024-01-16T08:30:05;23.10;23.70
80228;DHT22;69539;42.138;24.742;2024-01-16T08:32:33;23.20;23.70
80228;DHT22;69539;42.138;24.742;2024-01-16T08:34:59;23.20;23.70
80228;DHT22;69539;42.138;24.742;2024-01-16T08:37:25;23.20;23.70
80228;DHT22;69539;42.138;24.742;2024-01-16T08:39:51;23.10;23.60
80228;DHT22;69539;42.138;24.742;2024-01-16T08:42:16;23.10;23.60
80228;DHT22;69539;42.138;24.742;2024-01-16T08:44:43;23.10;23.60
80228;DHT22;69539;42.138;24.742;2024-01-16T08:47:09;23.00;23.60
80228;DHT22;69539;42.138;24.742;2024-01-16T08:49:35;23.00;23.60
80228;DHT22;69539;42.138;24.742;2024-01-16T08:52:01;22.90;23.60
80228;DHT22;69539;42.138;24.742;2024-01-16T08:54:28;22.90;23.70
80228;DHT22;69539;42.138;24.742;2024-01-16T08:56:53;22.80;23.70
80228;DHT22;69539;42.138;24.742;2024-01-16T08:59:19;22.80;23.70
80228;DHT22;69539;42.138;24.742;2024-01-16T09:01:45;22.80;23.80
80228;DHT22;69539;42.138;24.742;2024-01-16T09:04:10;22.70;23.70
80228;DHT22;69539;42.138;24.742;2024-01-16T09:06:37;22.70;23.70
80228;DHT22;69539;42.138;24.742;2024-01-16T09:09:03;22.60;23.70
80228;DHT22;69539;42.138;24.742;2024-01-16T09:11:30;22.60;23.70
80228;DHT22;69539;42.138;24.742;2024-01-16T09:13:56;22.60;23.70
80228;DHT22;69539;42.138;24.742;2024-01-16T09:16:21;22.60;23.80
80228;DHT22;69539;42.138;24.742;2024-01-16T09:18:47;22.70;23.80
80228;DHT22;69539;42.138;24.742;2024-01-16T09:21:14;22.80;23.70
80228;DHT22;69539;42.138;24.742;2024-01-16T09:23:39;22.90;23.70
80228;DHT22;69539;42.138;24.742;2024-01-16T09:26:05;23.00;23.60
80228;DHT22;69539;42.138;24.742;2024-01-16T09:28:31;22.90;23.60
80228;DHT22;69539;42.138;24.742;2024-01-16T09:30:57;22.90;23.50
80228;DHT22;69539;42.138;24.742;2024-01-16T09:33:23;23.00;23.50
80228;DHT22;69539;42.138;24.742;2024-01-16T09:35:51;23.00;24.40
80228;DHT22;69539;42.138;24.742;2024-01-16T09:38:17;23.00;23.40
80228;DHT22;69539;42.138;24.742;2024-01-16T09:40:42;23.00;23.40
80228;DHT22;69539;42.138;24.742;2024-01-16T09:43:09;23.00;23.40
80228;DHT22;69539;42.138;24.742;2024-01-16T09:45:37;23.10;23.40
80228;DHT22;69539;42.138;24.742;2024-01-16T09:48:04;23.00;23.30
80228;DHT22;69539;42.138;24.742;2024-01-16T09:50:31;23.10;23.30
80228;DHT22;69539;42.138;24.742;2024-01-16T09:52:57;23.10;23.20
80228;DHT22;69539;42.138;24.742;2024-01-16T09:55:23;23.20;23.30
80228;DHT22;69539;42.138;24.742;2024-01-16T09:57:51;23.20;23.10
80228;DHT22;69539;42.138;24.742;2024-01-16T10:00:17;23.20;23.00
80228;DHT22;69539;42.138;24.742;2024-01-16T10:02:43;23.20;23.00
80228;DHT22;69539;42.138;24.742;2024-01-16T10:05:12;23.20;22.90
80228;DHT22;69539;42.138;24.742;2024-01-16T10:07:40;23.20;22.90
80228;DHT22;69539;42.138;24.742;2024-01-16T10:10:06;23.20;22.80
80228;DHT22;69539;42.138;24.742;2024-01-16T10:12:32;23.20;22.80
80228;DHT22;69539;42.138;24.742;2024-01-16T10:14:59;23.30;22.80
80228;DHT22;69539;42.138;24.742;2024-01-16T10:17:42;23.30;22.80
80228;DHT22;69539;42.138;24.742;2024-01-16T10:20:09;23.30;22.90
80228;DHT22;69539;42.138;24.742;2024-01-16T10:22:39;23.30;22.80
80228;DHT22;69539;42.138;24.742;2024-01-16T10:25:09;23.30;22.90
80228;DHT22;69539;42.138;24.742;2024-01-16T10:27:37;23.30;22.80
80228;DHT22;69539;42.138;24.742;2024-01-16T10:30:03;23.40;22.80
80228;DHT22;69539;42.138;24.742;2024-01-16T10:32:35;23.40;22.90
80228;DHT22;69539;42.138;24.742;2024-01-16T10:40:21;23.40;22.80
80228;DHT22;69539;42.138;24.742;2024-01-16T10:43:00;23.40;23.50
80228;DHT22;69539;42.138;24.742;2024-01-16T10:45:26;23.50;22.70
80228;DHT22;69539;42.138;24.742;2024-01-16T10:48:05;23.40;22.80
80228;DHT22;69539;42.138;24.742;2024-01-16T10:50:33;23.50;22.70
80228;DHT22;69539;42.138;24.742;2024-01-16T10:53:04;23.50;22.80
80228;DHT22;69539;42.138;24.742;2024-01-16T10:55:29;23.50;22.80
80228;DHT22;69539;42.138;24.742;2024-01-16T10:57:58;23.50;22.70
80228;DHT22;69539;42.138;24.742;2024-01-16T11:00:27;23.50;22.60
80228;DHT22;69539;42.138;24.742;2024-01-16T11:03:06;23.60;22.60
80228;DHT22;69539;42.138;24.742;2024-01-16T11:05:34;23.50;22.50
80228;DHT22;69539;42.138;24.742;2024-01-16T11:08:01;23.50;22.80
80228;DHT22;69539;42.138;24.742;2024-01-16T11:10:27;23.50;22.80
80228;DHT22;69539;42.138;24.742;2024-01-16T11:12:54;23.50;22.90
80228;DHT22;69539;42.138;24.742;2024-01-16T11:15:22;23.50;22.80
80228;DHT22;69539;42.138;24.742;2024-01-16T11:17:50;23.50;22.60
80228;DHT22;69539;42.138;24.742;2024-01-16T11:20:16;23.60;22.60
80228;DHT22;69539;42.138;24.742;2024-01-16T11:22:44;23.60;22.50
80228;DHT22;69539;42.138;24.742;2024-01-16T11:25:15;23.60;22.50
80228;DHT22;69539;42.138;24.742;2024-01-16T11:27:42;23.60;22.30
80228;DHT22;69539;42.138;24.742;2024-01-16T11:30:09;23.60;22.40
80228;DHT22;69539;42.138;24.742;2024-01-16T11:32:40;23.60;22.30
80228;DHT22;69539;42.138;24.742;2024-01-16T11:35:07;23.60;22.30
80228;DHT22;69539;42.138;24.742;2024-01-16T11:37:35;23.60;22.30
80228;DHT22;69539;42.138;24.742;2024-01-16T11:40:21;23.70;22.40
80228;DHT22;69539;42.138;24.742;2024-01-16T11:42:48;23.70;22.20
80228;DHT22;69539;42.138;24.742;2024-01-16T11:48:14;23.80;22.20
80228;DHT22;69539;42.138;24.742;2024-01-16T11:50:41;23.80;22.40
80228;DHT22;69539;42.138;24.742;2024-01-16T11:53:07;23.80;22.60
80228;DHT22;69539;42.138;24.742;2024-01-16T11:55:35;23.80;22.60
80228;DHT22;69539;42.138;24.742;2024-01-16T12:00:35;23.90;22.30
80228;DHT22;69539;42.138;24.742;2024-01-16T12:03:04;23.80;22.00
80228;DHT22;69539;42.138;24.742;2024-01-16T12:05:31;23.80;22.20
80228;DHT22;69539;42.138;24.742;2024-01-16T12:07:57;23.80;22.00
80228;DHT22;69539;42.138;24.742;2024-01-16T12:10:24;23.80;22.00
80228;DHT22;69539;42.138;24.742;2024-01-16T12:12:50;23.90;22.00
80228;DHT22;69539;42.138;24.742;2024-01-16T12:15:20;23.90;21.90
80228;DHT22;69539;42.138;24.742;2024-01-16T12:20:21;24.00;21.90
80228;DHT22;69539;42.138;24.742;2024-01-16T12:22:57;24.00;21.70
80228;DHT22;69539;42.138;24.742;2024-01-16T12:25:25;24.00;21.90
80228;DHT22;69539;42.138;24.742;2024-01-16T12:30:30;24.00;21.70
80228;DHT22;69539;42.138;24.742;2024-01-16T12:33:11;24.00;21.70
80228;DHT22;69539;42.138;24.742;2024-01-16T12:35:42;24.00;21.10
80228;DHT22;69539;42.138;24.742;2024-01-16T12:38:09;23.90;20.50
80228;DHT22;69539;42.138;24.742;2024-01-16T12:40:36;23.80;20.20
80228;DHT22;69539;42.138;24.742;2024-01-16T12:43:03;23.80;20.00
80228;DHT22;69539;42.138;24.742;2024-01-16T12:45:30;23.80;20.40
80228;DHT22;69539;42.138;24.742;2024-01-16T12:47:57;23.80;19.80
80228;DHT22;69539;42.138;24.742;2024-01-16T12:50:27;23.80;19.70
80228;DHT22;69539;42.138;24.742;2024-01-16T12:53:10;23.80;19.50
80228;DHT22;69539;42.138;24.742;2024-01-16T12:55:37;23.60;19.50
80228;DHT22;69539;42.138;24.742;2024-01-16T12:58:19;23.60;18.80
80228;DHT22;69539;42.138;24.742;2024-01-16T13:00:46;23.40;19.10
80228;DHT22;69539;42.138;24.742;2024-01-16T13:03:21;23.30;19.40
80228;DHT22;69539;42.138;24.742;2024-01-16T13:06:00;23.30;19.60
80228;DHT22;69539;42.138;24.742;2024-01-16T13:08:27;23.20;19.80
80228;DHT22;69539;42.138;24.742;2024-01-16T13:11:06;23.20;19.90
80228;DHT22;69539;42.138;24.742;2024-01-16T13:13:33;23.20;19.90
80228;DHT22;69539;42.138;24.742;2024-01-16T13:15:59;23.30;20.00
80228;DHT22;69539;42.138;24.742;2024-01-16T13:18:27;23.30;20.00
80228;DHT22;69539;42.138;24.742;2024-01-16T13:20:54;23.30;20.10
80228;DHT22;69539;42.138;24.742;2024-01-16T13:23:21;23.30;20.20
80228;DHT22;69539;42.138;24.742;2024-01-16T13:25:48;23.30;20.20
80228;DHT22;69539;42.138;24.742;2024-01-16T13:28:15;23.30;20.00
80228;DHT22;69539;42.138;24.742;2024-01-16T13:30:44;23.30;20.30
80228;DHT22;69539;42.138;24.742;2024-01-16T13:33:12;23.30;21.10
80228;DHT22;69539;42.138;24.742;2024-01-16T13:35:39;23.30;20.40
80228;DHT22;69539;42.138;24.742;2024-01-16T13:38:06;23.30;20.40
80228;DHT22;69539;42.138;24.742;2024-01-16T13:40:37;23.30;20.40
80228;DHT22;69539;42.138;24.742;2024-01-16T13:43:03;23.30;20.50
80228;DHT22;69539;42.138;24.742;2024-01-16T13:45:29;23.30;20.50
80228;DHT22;69539;42.138;24.742;2024-01-16T13:47:55;23.30;21.40
80228;DHT22;69539;42.138;24.742;2024-01-16T13:50:22;23.30;20.60
80228;DHT22;69539;42.138;24.742;2024-01-16T13:52:48;23.20;20.70
80228;DHT22;69539;42.138;24.742;2024-01-16T13:55:13;23.20;20.60
80228;DHT22;69539;42.138;24.742;2024-01-16T13:57:39;23.20;20.70
80228;DHT22;69539;42.138;24.742;2024-01-16T14:00:07;23.20;20.70
80228;DHT22;69539;42.138;24.742;2024-01-16T14:02:33;23.20;20.70
80228;DHT22;69539;42.138;24.742;2024-01-16T14:05:04;23.20;20.80
80228;DHT22;69539;42.138;24.742;2024-01-16T14:07:31;23.10;20.70
80228;DHT22;69539;42.138;24.742;2024-01-16T14:09:57;23.10;20.80
80228;DHT22;69539;42.138;24.742;2024-01-16T14:12:23;23.10;20.80
80228;DHT22;69539;42.138;24.742;2024-01-16T14:14:50;23.10;20.80
80228;DHT22;69539;42.138;24.742;2024-01-16T14:17:16;23.10;20.90
80228;DHT22;69539;42.138;24.742;2024-01-16T14:19:42;23.00;20.80
80228;DHT22;69539;42.138;24.742;2024-01-16T14:22:08;23.10;21.00
80228;DHT22;69539;42.138;24.742;2024-01-16T14:24:33;23.00;21.00
80228;DHT22;69539;42.138;24.742;2024-01-16T14:26:59;23.00;21.00
